sensor_id;sensor_type;location;lat;lon;timestamp;temperature;humidity
23629;DHT22;11991;57.150;-2.134;2023-03-13T00:01:27;6.80;99.90
23629;DHT22;11991;57.150;-2.134;2023-03-13T00:03:54;6.80;99.90
23629;DHT22;11991;57.150;-2.134;2023-03-13T00:06:24;6.80;99.90
23629;DHT22;11991;57.150;-2.134;2023-03-13T00:08:53;6.90;99.90
23629;DHT22;11991;57.150;-2.134;2023-03-13T00:11:20;6.90;99.90
23629;DHT22;11991;57.150;-2.134;2023-03-13T00:13:48;7.00;99.90
23629;DHT22;11991;57.150;-2.134;2023-03-13T00:16:19;6.90;99.90
23629;DHT22;11991;57.150;-2.134;2023-03-13T00:18:48;6.90;99.90
23629;DHT22;11991;57.150;-2.134;2023-03-13T00:21:17;6.90;99.90
23629;DHT22;11991;57.150;-2.134;2023-03-13T00:23:45;7.00;99.90
23629;DHT22;11991;57.150;-2.134;2023-03-13T00:26:22;7.00;99.90
23629;DHT22;11991;57.150;-2.134;2023-03-13T00:28:50;7.00;99.90
23629;DHT22;11991;57.150;-2.134;2023-03-13T00:31:20;7.00;99.90
23629;DHT22;11991;57.150;-2.134;2023-03-13T00:33:51;7.00;99.90
23629;DHT22;11991;57.150;-2.134;2023-03-13T00:36:24;7.10;99.90
23629;DHT22;11991;57.150;-2.134;2023-03-13T00:38:52;7.10;99.90
23629;DHT22;11991;57.150;-2.134;2023-03-13T00:41:22;7.10;99.90
23629;DHT22;11991;57.150;-2.134;2023-03-13T00:43:50;7.20;99.90
23629;DHT22;11991;57.150;-2.134;2023-03-13T00:46:19;7.20;99.90
23629;DHT22;11991;57.150;-2.134;2023-03-13T00:48:48;7.20;99.90
23629;DHT22;11991;57.150;-2.134;2023-03-13T00:51:16;7.20;99.90
23629;DHT22;11991;57.150;-2.134;2023-03-13T00:53:45;7.20;99.90
23629;DHT22;11991;57.150;-2.134;2023-03-13T00:56:14;7.20;99.90
23629;DHT22;11991;57.150;-2.134;2023-03-13T00:58:43;7.20;99.90
23629;DHT22;11991;57.150;-2.134;2023-03-13T01:01:26;7.20;99.90
23629;DHT22;11991;57.150;-2.134;2023-03-13T01:03:59;7.20;99.90
23629;DHT22;11991;57.150;-2.134;2023-03-13T01:06:30;7.20;99.90
23629;DHT22;11991;57.150;-2.134;2023-03-13T01:08:58;7.20;99.90
23629;DHT22;11991;57.150;-2.134;2023-03-13T01:11:28;7.20;99.90
23629;DHT22;11991;57.150;-2.134;2023-03-13T01:13:58;7.20;99.90
23629;DHT22;11991;57.150;-2.134;2023-03-13T01:16:28;7.20;99.90
23629;DHT22;11991;57.150;-2.134;2023-03-13T01:18:59;7.20;99.90
23629;DHT22;11991;57.150;-2.134;2023-03-13T01:21:27;7.20;99.90
23629;DHT22;11991;57.150;-2.134;2023-03-13T01:23:55;7.20;99.90
23629;DHT22;11991;57.150;-2.134;2023-03-13T01:26:23;7.20;99.90
23629;DHT22;11991;57.150;-2.134;2023-03-13T01:28:53;7.20;99.90
23629;DHT22;11991;57.150;-2.134;2023-03-13T01:31:21;7.20;99.90
23629;DHT22;11991;57.150;-2.134;2023-03-13T01:33:52;7.20;99.90
23629;DHT22;11991;57.150;-2.134;2023-03-13T01:36:20;7.10;99.90
23629;DHT22;11991;57.150;-2.134;2023-03-13T01:38:49;7.10;99.90
23629;DHT22;11991;57.150;-2.134;2023-03-13T01:41:17;7.10;99.90
23629;DHT22;11991;57.150;-2.134;2023-03-13T01:43:46;7.10;99.90
23629;DHT22;11991;57.150;-2.134;2023-03-13T01:46:21;7.00;99.90
23629;DHT22;11991;57.150;-2.134;2023-03-13T01:49:10;7.00;99.90
23629;DHT22;11991;57.150;-2.134;2023-03-13T01:51:57;7.00;99.90
23629;DHT22;11991;57.150;-2.134;2023-03-13T01:54:50;7.00;99.90
23629;DHT22;11991;57.150;-2.134;2023-03-13T01:57:28;6.90;99.90
23629;DHT22;11991;57.150;-2.134;2023-03-13T02:00:03;6.90;99.90
23629;DHT22;11991;57.150;-2.134;2023-03-13T02:02:44;6.80;99.90
23629;DHT22;11991;57.150;-2.134;2023-03-13T02:05:14;6.80;99.90
23629;DHT22;11991;57.150;-2.134;2023-03-13T02:07:53;6.70;99.90
23629;DHT22;11991;57.150;-2.134;2023-03-13T02:10:22;6.60;99.90
23629;DHT22;11991;57.150;-2.134;2023-03-13T02:12:51;6.50;99.90
23629;DHT22;11991;57.150;-2.134;2023-03-13T02:15:22;6.40;99.90
23629;DHT22;11991;57.150;-2.134;2023-03-13T02:17:50;6.30;99.90
23629;DHT22;11991;57.150;-2.134;2023-03-13T02:20:19;6.20;99.90
23629;DHT22;11991;57.150;-2.134;2023-03-13T02:22:56;6.20;99.90
23629;DHT22;11991;57.150;-2.134;2023-03-13T02:28:20;6.10;99.90
23629;DHT22;11991;57.150;-2.134;2023-03-13T02:30:49;6.00;99.90
23629;DHT22;11991;57.150;-2.134;2023-03-13T02:33:18;6.00;99.90
23629;DHT22;11991;57.150;-2.134;2023-03-13T02:35:47;6.00;99.90
23629;DHT22;11991;57.150;-2.134;2023-03-13T02:38:20;5.90;99.90
23629;DHT22;11991;57.150;-2.134;2023-03-13T02:40:50;5.90;99.90
23629;DHT22;11991;57.150;-2.134;2023-03-13T02:43:31;5.90;99.90
23629;DHT22;11991;57.150;-2.134;2023-03-13T02:46:01;5.90;99.90
23629;DHT22;11991;57.150;-2.134;2023-03-13T02:48:38;5.90;99.90
23629;DHT22;11991;57.150;-2.134;2023-03-13T02:51:34;5.90;99.90
23629;DHT22;11991;57.150;-2.134;2023-03-13T02:54:04;5.90;99.90
23629;DHT22;11991;57.150;-2.134;2023-03-13T02:56:34;5.90;99.90
23629;DHT22;11991;57.150;-2.134;2023-03-13T02:59:03;5.90;99.90
23629;DHT22;11991;57.150;-2.134;2023-03-13T03:01:31;5.90;99.90
23629;DHT22;11991;57.150;-2.134;2023-03-13T03:03:58;5.80;99.90
23629;DHT22;11991;57.150;-2.134;2023-03-13T03:06:26;5.80;99.90
23629;DHT22;11991;57.150;-2.134;2023-03-13T03:08:54;5.80;99.90
23629;DHT22;11991;57.150;-2.134;2023-03-13T03:11:23;5.80;99.90
23629;DHT22;11991;57.150;-2.134;2023-03-13T03:13:56;5.80;99.90
23629;DHT22;11991;57.150;-2.134;2023-03-13T03:16:25;5.80;99.90
23629;DHT22;11991;57.150;-2.134;2023-03-13T03:18:52;5.80;99.90
23629;DHT22;11991;57.150;-2.134;2023-03-13T03:21:20;5.80;99.90
23629;DHT22;11991;57.150;-2.134;2023-03-13T03:23:50;5.80;99.90
23629;DHT22;11991;57.150;-2.134;2023-03-13T03:26:18;5.80;99.90
23629;DHT22;11991;57.150;-2.134;2023-03-13T03:28:45;5.70;99.90
23629;DHT22;11991;57.150;-2.134;2023-03-13T03:31:14;5.80;99.90
23629;DHT22;11991;57.150;-2.134;2023-03-13T03:33:43;5.80;99.90
23629;DHT22;11991;57.150;-2.134;2023-03-13T03:36:18;5.80;99.90
23629;DHT22;11991;57.150;-2.134;2023-03-13T03:38:47;5.80;99.90
23629;DHT22;11991;57.150;-2.134;2023-03-13T03:41:17;5.80;99.90
23629;DHT22;11991;57.150;-2.134;2023-03-13T03:43:45;5.80;99.90
23629;DHT22;11991;57.150;-2.134;2023-03-13T03:46:19;5.90;99.90
23629;DHT22;11991;57.150;-2.134;2023-03-13T03:48:47;5.90;99.90
23629;DHT22;11991;57.150;-2.134;2023-03-13T03:51:14;5.90;99.90
23629;DHT22;11991;57.150;-2.134;2023-03-13T03:53:43;5.90;99.90
23629;DHT22;11991;57.150;-2.134;2023-03-13T03:56:11;5.90;99.90
23629;DHT22;11991;57.150;-2.134;2023-03-13T03:58:46;5.90;99.90
23629;DHT22;11991;57.150;-2.134;2023-03-13T04:01:25;5.90;99.90
23629;DHT22;11991;57.150;-2.134;2023-03-13T04:03:52;5.90;99.90
23629;DHT22;11991;57.150;-2.134;2023-03-13T04:06:19;6.00;99.90
23629;DHT22;11991;57.150;-2.134;2023-03-13T04:08:47;6.00;99.90
23629;DHT22;11991;57.150;-2.134;2023-03-13T04:11:17;6.00;99.90
23629;DHT22;11991;57.150;-2.134;2023-03-13T04:13:51;6.00;99.90
23629;DHT22;11991;57.150;-2.134;2023-03-13T04:16:19;6.00;99.90
23629;DHT22;11991;57.150;-2.134;2023-03-13T04:18:47;6.00;99.90
23629;DHT22;11991;57.150;-2.134;2023-03-13T04:21:16;6.00;99.90
23629;DHT22;11991;57.150;-2.134;2023-03-13T04:23:50;5.90;99.90
23629;DHT22;11991;57.150;-2.134;2023-03-13T04:26:18;6.00;99.90
23629;DHT22;11991;57.150;-2.134;2023-03-13T04:28:48;5.90;99.90
23629;DHT22;11991;57.150;-2.134;2023-03-13T04:31:20;6.00;99.90
23629;DHT22;11991;57.150;-2.134;2023-03-13T04:34:13;6.00;99.90
23629;DHT22;11991;57.150;-2.134;2023-03-13T04:37:03;6.00;99.90
23629;DHT22;11991;57.150;-2.134;2023-03-13T04:39:48;6.00;99.90
23629;DHT22;11991;57.150;-2.134;2023-03-13T04:42:33;6.00;99.90
23629;DHT22;11991;57.150;-2.134;2023-03-13T04:45:10;6.00;99.90
23629;DHT22;11991;57.150;-2.134;2023-03-13T04:47:45;6.00;99.90
23629;DHT22;11991;57.150;-2.134;2023-03-13T04:50:33;6.10;99.90
23629;DHT22;11991;57.150;-2.134;2023-03-13T04:53:20;6.00;99.90
23629;DHT22;11991;57.150;-2.134;2023-03-13T04:56:10;6.10;99.90
23629;DHT22;11991;57.150;-2.134;2023-03-13T04:58:52;6.10;99.90
23629;DHT22;11991;57.150;-2.134;2023-03-13T05:01:50;6.10;99.90
23629;DHT22;11991;57.150;-2.134;2023-03-13T05:04:42;6.10;99.90
23629;DHT22;11991;57.150;-2.134;2023-03-13T05:07:28;6.10;99.90
23629;DHT22;11991;57.150;-2.134;2023-03-13T05:10:30;6.10;99.90
23629;DHT22;11991;57.150;-2.134;2023-03-13T05:13:16;6.10;99.90
23629;DHT22;11991;57.150;-2.134;2023-03-13T05:16:04;6.20;99.90
23629;DHT22;11991;57.150;-2.134;2023-03-13T05:19:01;6.20;99.90
23629;DHT22;11991;57.150;-2.134;2023-03-13T05:21:41;6.10;99.90
23629;DHT22;11991;57.150;-2.134;2023-03-13T05:24:31;6.10;99.90
23629;DHT22;11991;57.150;-2.134;2023-03-13T05:27:10;6.20;99.90
23629;DHT22;11991;57.150;-2.134;2023-03-13T05:30:11;6.20;99.90
23629;DHT22;11991;57.150;-2.134;2023-03-13T05:33:02;6.10;99.90
23629;DHT22;11991;57.150;-2.134;2023-03-13T05:35:55;6.20;99.90
23629;DHT22;11991;57.150;-2.134;2023-03-13T05:38:31;6.20;99.90
23629;DHT22;11991;57.150;-2.134;2023-03-13T05:41:19;6.10;99.90
23629;DHT22;11991;57.150;-2.134;2023-03-13T05:44:13;6.10;99.90
23629;DHT22;11991;57.150;-2.134;2023-03-13T05:46:59;6.10;99.90
23629;DHT22;11991;57.150;-2.134;2023-03-13T05:49:48;6.00;99.90
23629;DHT22;11991;57.150;-2.134;2023-03-13T05:52:51;6.00;99.90
23629;DHT22;11991;57.150;-2.134;2023-03-13T05:55:41;6.00;99.90
23629;DHT22;11991;57.150;-2.134;2023-03-13T05:58:27;5.90;99.90
23629;DHT22;11991;57.150;-2.134;2023-03-13T06:01:23;5.90;99.90
23629;DHT22;11991;57.150;-2.134;2023-03-13T06:04:00;5.80;99.90
23629;DHT22;11991;57.150;-2.134;2023-03-13T06:06:30;5.70;99.90
23629;DHT22;11991;57.150;-2.134;2023-03-13T06:08:58;5.70;99.90
23629;DHT22;11991;57.150;-2.134;2023-03-13T06:11:29;5.60;99.90
23629;DHT22;11991;57.150;-2.134;2023-03-13T06:13:56;5.60;99.90
23629;DHT22;11991;57.150;-2.134;2023-03-13T06:16:49;5.60;99.90
23629;DHT22;11991;57.150;-2.134;2023-03-13T06:19:17;5.60;99.90
23629;DHT22;11991;57.150;-2.134;2023-03-13T06:21:44;5.60;99.90
23629;DHT22;11991;57.150;-2.134;2023-03-13T06:24:12;5.60;99.90
23629;DHT22;11991;57.150;-2.134;2023-03-13T06:26:39;5.60;99.90
23629;DHT22;11991;57.150;-2.134;2023-03-13T06:29:06;5.60;99.90
23629;DHT22;11991;57.150;-2.134;2023-03-13T06:31:34;5.50;99.90
23629;DHT22;11991;57.150;-2.134;2023-03-13T06:34:02;5.50;99.90
23629;DHT22;11991;57.150;-2.134;2023-03-13T06:36:30;5.50;99.90
23629;DHT22;11991;57.150;-2.134;2023-03-13T06:38:57;5.50;99.90
23629;DHT22;11991;57.150;-2.134;2023-03-13T06:41:25;5.50;99.90
23629;DHT22;11991;57.150;-2.134;2023-03-13T06:43:53;5.60;99.90
23629;DHT22;11991;57.150;-2.134;2023-03-13T06:46:22;5.70;99.90
23629;DHT22;11991;57.150;-2.134;2023-03-13T06:48:50;5.70;99.90
23629;DHT22;11991;57.150;-2.134;2023-03-13T06:51:19;5.70;99.90
23629;DHT22;11991;57.150;-2.134;2023-03-13T06:53:47;5.80;99.90
23629;DHT22;11991;57.150;-2.134;2023-03-13T06:56:14;5.80;99.90
23629;DHT22;11991;57.150;-2.134;2023-03-13T06:58:42;5.80;99.90
23629;DHT22;11991;57.150;-2.134;2023-03-13T07:01:15;5.80;99.90
23629;DHT22;11991;57.150;-2.134;2023-03-13T07:03:43;5.80;99.90
23629;DHT22;11991;57.150;-2.134;2023-03-13T07:06:11;5.80;99.90
23629;DHT22;11991;57.150;-2.134;2023-03-13T07:08:38;5.80;99.90
23629;DHT22;11991;57.150;-2.134;2023-03-13T07:11:08;5.80;99.90
23629;DHT22;11991;57.150;-2.134;2023-03-13T07:13:36;5.80;99.90
23629;DHT22;11991;57.150;-2.134;2023-03-13T07:16:09;5.80;99.90
23629;DHT22;11991;57.150;-2.134;2023-03-13T07:18:37;5.80;99.90
23629;DHT22;11991;57.150;-2.134;2023-03-13T07:21:05;5.90;99.90
23629;DHT22;11991;57.150;-2.134;2023-03-13T07:23:34;5.80;99.90
23629;DHT22;11991;57.150;-2.134;2023-03-13T07:26:04;5.90;99.90
23629;DHT22;11991;57.150;-2.134;2023-03-13T07:28:33;5.90;99.90
23629;DHT22;11991;57.150;-2.134;2023-03-13T07:31:11;5.90;99.90
23629;DHT22;11991;57.150;-2.134;2023-03-13T07:33:39;5.90;99.90
23629;DHT22;11991;57.150;-2.134;2023-03-13T07:36:08;6.00;99.90
23629;DHT22;11991;57.150;-2.134;2023-03-13T07:38:35;6.00;99.90
23629;DHT22;11991;57.150;-2.134;2023-03-13T07:41:03;6.00;99.90
23629;DHT22;11991;57.150;-2.134;2023-03-13T07:43:31;6.00;99.90
23629;DHT22;11991;57.150;-2.134;2023-03-13T07:46:01;6.00;99.90
23629;DHT22;11991;57.150;-2.134;2023-03-13T07:48:31;6.00;99.90
23629;DHT22;11991;57.150;-2.134;2023-03-13T07:50:59;6.00;99.90
23629;DHT22;11991;57.150;-2.134;2023-03-13T07:53:28;6.00;99.90
23629;DHT22;11991;57.150;-2.134;2023-03-13T07:55:59;6.00;99.90
23629;DHT22;11991;57.150;-2.134;2023-03-13T07:58:30;6.00;99.90
23629;DHT22;11991;57.150;-2.134;2023-03-13T08:00:57;6.00;99.90
23629;DHT22;11991;57.150;-2.134;2023-03-13T08:03:25;6.00;99.90
23629;DHT22;11991;57.150;-2.134;2023-03-13T08:06:06;6.00;99.90
23629;DHT22;11991;57.150;-2.134;2023-03-13T08:08:34;5.90;99.90
23629;DHT22;11991;57.150;-2.134;2023-03-13T08:13:32;5.90;99.90
23629;DHT22;11991;57.150;-2.134;2023-03-13T08:16:08;5.90;99.90
23629;DHT22;11991;57.150;-2.134;2023-03-13T08:18:37;5.90;99.90
23629;DHT22;11991;57.150;-2.134;2023-03-13T08:21:10;5.90;99.90
23629;DHT22;11991;57.150;-2.134;2023-03-13T08:23:38;5.90;99.90
23629;DHT22;11991;57.150;-2.134;2023-03-13T08:26:12;5.90;99.90
23629;DHT22;11991;57.150;-2.134;2023-03-13T08:28:42;5.90;99.90
23629;DHT22;11991;57.150;-2.134;2023-03-13T08:31:26;5.90;99.90
23629;DHT22;11991;57.150;-2.134;2023-03-13T08:33:54;5.80;99.90
23629;DHT22;11991;57.150;-2.134;2023-03-13T08:36:26;5.80;99.90
23629;DHT22;11991;57.150;-2.134;2023-03-13T08:38:57;5.80;99.90
23629;DHT22;11991;57.150;-2.134;2023-03-13T08:41:27;5.80;99.90
23629;DHT22;11991;57.150;-2.134;2023-03-13T08:43:56;5.70;99.90
23629;DHT22;11991;57.150;-2.134;2023-03-13T08:46:25;5.70;99.90
23629;DHT22;11991;57.150;-2.134;2023-03-13T08:48:53;5.70;99.90
23629;DHT22;11991;57.150;-2.134;2023-03-13T08:51:23;5.60;99.90
23629;DHT22;11991;57.150;-2.134;2023-03-13T08:53:52;5.60;99.90
23629;DHT22;11991;57.150;-2.134;2023-03-13T08:56:23;5.50;99.90
23629;DHT22;11991;57.150;-2.134;2023-03-13T08:58:53;5.50;99.90
23629;DHT22;11991;57.150;-2.134;2023-03-13T09:01:22;5.40;99.90
23629;DHT22;11991;57.150;-2.134;2023-03-13T09:03:50;5.30;99.90
23629;DHT22;11991;57.150;-2.134;2023-03-13T09:06:18;5.30;99.90
23629;DHT22;11991;57.150;-2.134;2023-03-13T09:08:46;5.20;99.90
23629;DHT22;11991;57.150;-2.134;2023-03-13T09:11:16;5.20;99.90
23629;DHT22;11991;57.150;-2.134;2023-03-13T09:13:46;5.10;99.90
23629;DHT22;11991;57.150;-2.134;2023-03-13T09:16:19;5.00;99.90
23629;DHT22;11991;57.150;-2.134;2023-03-13T09:18:48;5.00;99.90
23629;DHT22;11991;57.150;-2.134;2023-03-13T09:21:21;5.00;99.90
23629;DHT22;11991;57.150;-2.134;2023-03-13T09:23:49;4.90;99.90
23629;DHT22;11991;57.150;-2.134;2023-03-13T09:26:18;4.80;99.90
23629;DHT22;11991;57.150;-2.134;2023-03-13T09:28:49;4.70;99.90
23629;DHT22;11991;57.150;-2.134;2023-03-13T09:31:23;4.70;99.90
23629;DHT22;11991;57.150;-2.134;2023-03-13T09:33:52;4.70;99.90
23629;DHT22;11991;57.150;-2.134;2023-03-13T09:36:20;4.60;99.90
23629;DHT22;11991;57.150;-2.134;2023-03-13T09:38:50;4.50;99.90
23629;DHT22;11991;57.150;-2.134;2023-03-13T09:41:25;4.50;99.90
23629;DHT22;11991;57.150;-2.134;2023-03-13T09:49:12;4.40;99.90
23629;DHT22;11991;57.150;-2.134;2023-03-13T09:51:43;4.30;99.90
23629;DHT22;11991;57.150;-2.134;2023-03-13T09:54:25;4.30;99.90
23629;DHT22;11991;57.150;-2.134;2023-03-13T09:57:02;4.20;99.90
23629;DHT22;11991;57.150;-2.134;2023-03-13T09:59:46;4.10;99.90
23629;DHT22;11991;57.150;-2.134;2023-03-13T10:02:32;4.10;99.90
23629;DHT22;11991;57.150;-2.134;2023-03-13T10:08:21;4.00;99.90
23629;DHT22;11991;57.150;-2.134;2023-03-13T10:11:02;4.00;99.90
23629;DHT22;11991;57.150;-2.134;2023-03-13T10:13:32;4.00;99.90
23629;DHT22;11991;57.150;-2.134;2023-03-13T10:16:14;4.00;99.90
23629;DHT22;11991;57.150;-2.134;2023-03-13T10:18:48;4.00;99.90
23629;DHT22;11991;57.150;-2.134;2023-03-13T10:21:22;3.90;99.90
23629;DHT22;11991;57.150;-2.134;2023-03-13T10:24:04;3.80;99.90
23629;DHT22;11991;57.150;-2.134;2023-03-13T10:26:35;3.80;99.90
23629;DHT22;11991;57.150;-2.134;2023-03-13T10:29:22;3.80;99.90
23629;DHT22;11991;57.150;-2.134;2023-03-13T10:32:19;3.80;99.90
23629;DHT22;11991;57.150;-2.134;2023-03-13T10:34:58;3.70;99.90
23629;DHT22;11991;57.150;-2.134;2023-03-13T10:37:34;3.70;99.90
23629;DHT22;11991;57.150;-2.134;2023-03-13T10:40:21;3.70;99.90
23629;DHT22;11991;57.150;-2.134;2023-03-13T10:42:51;3.70;99.90
23629;DHT22;11991;57.150;-2.134;2023-03-13T10:45:21;3.70;99.90
23629;DHT22;11991;57.150;-2.134;2023-03-13T10:47:56;3.70;99.90
23629;DHT22;11991;57.150;-2.134;2023-03-13T10:50:30;3.70;99.90
23629;DHT22;11991;57.150;-2.134;2023-03-13T10:53:11;3.60;99.90
23629;DHT22;11991;57.150;-2.134;2023-03-13T10:55:43;3.70;99.90
23629;DHT22;11991;57.150;-2.134;2023-03-13T10:58:29;3.70;99.90
23629;DHT22;11991;57.150;-2.134;2023-03-13T11:01:28;3.80;99.90
23629;DHT22;11991;57.150;-2.134;2023-03-13T11:03:58;3.80;99.90
23629;DHT22;11991;57.150;-2.134;2023-03-13T11:06:33;3.90;99.90
23629;DHT22;11991;57.150;-2.134;2023-03-13T11:09:13;3.90;99.90
23629;DHT22;11991;57.150;-2.134;2023-03-13T11:12:03;3.90;99.90
23629;DHT22;11991;57.150;-2.134;2023-03-13T11:14:31;3.90;99.90
23629;DHT22;11991;57.150;-2.134;2023-03-13T11:18:54;4.00;99.90
23629;DHT22;11991;57.150;-2.134;2023-03-13T11:24:20;4.00;99.90
23629;DHT22;11991;57.150;-2.134;2023-03-13T11:27:22;4.10;99.90
23629;DHT22;11991;57.150;-2.134;2023-03-13T11:30:03;4.00;99.90
23629;DHT22;11991;57.150;-2.134;2023-03-13T11:32:53;4.00;99.90
23629;DHT22;11991;57.150;-2.134;2023-03-13T11:38:15;4.00;99.90
23629;DHT22;11991;57.150;-2.134;2023-03-13T11:57:26;4.10;99.90
23629;DHT22;11991;57.150;-2.134;2023-03-13T12:00:18;4.10;99.90
23629;DHT22;11991;57.150;-2.134;2023-03-13T12:03:00;4.10;99.90
23629;DHT22;11991;57.150;-2.134;2023-03-13T12:05:59;4.10;99.90
23629;DHT22;11991;57.150;-2.134;2023-03-13T12:08:26;4.10;99.90
23629;DHT22;11991;57.150;-2.134;2023-03-13T12:13:35;4.20;99.90
23629;DHT22;11991;57.150;-2.134;2023-03-13T12:16:45;4.20;99.90
23629;DHT22;11991;57.150;-2.134;2023-03-13T12:19:29;4.30;99.90
23629;DHT22;11991;57.150;-2.134;2023-03-13T12:22:07;4.30;99.90
23629;DHT22;11991;57.150;-2.134;2023-03-13T12:24:55;4.30;99.90
23629;DHT22;11991;57.150;-2.134;2023-03-13T12:27:32;4.30;99.90
23629;DHT22;11991;57.150;-2.134;2023-03-13T12:33:39;4.30;99.90
23629;DHT22;11991;57.150;-2.134;2023-03-13T12:36:37;4.40;99.90
23629;DHT22;11991;57.150;-2.134;2023-03-13T12:39:32;4.40;99.90
23629;DHT22;11991;57.150;-2.134;2023-03-13T12:44:51;4.40;99.90
23629;DHT22;11991;57.150;-2.134;2023-03-13T12:47:32;4.40;99.90
23629;DHT22;11991;57.150;-2.134;2023-03-13T12:53:28;4.50;99.90
23629;DHT22;11991;57.150;-2.134;2023-03-13T12:58:51;4.50;99.90
23629;DHT22;11991;57.150;-2.134;2023-03-13T13:01:52;4.50;99.90
23629;DHT22;11991;57.150;-2.134;2023-03-13T13:04:26;4.60;99.90
23629;DHT22;11991;57.150;-2.134;2023-03-13T13:09:32;4.70;99.90
23629;DHT22;11991;57.150;-2.134;2023-03-13T13:12:20;4.60;99.90
23629;DHT22;11991;57.150;-2.134;2023-03-13T13:23:17;4.60;99.90
23629;DHT22;11991;57.150;-2.134;2023-03-13T13:25:44;4.60;99.90
23629;DHT22;11991;57.150;-2.134;2023-03-13T13:28:33;4.60;99.90
23629;DHT22;11991;57.150;-2.134;2023-03-13T13:31:01;4.60;99.90
23629;DHT22;11991;57.150;-2.134;2023-03-13T13:33:38;4.60;99.90
23629;DHT22;11991;57.150;-2.134;2023-03-13T13:38:49;4.50;99.90
23629;DHT22;11991;57.150;-2.134;2023-03-13T13:41:26;4.30;99.90
23629;DHT22;11991;57.150;-2.134;2023-03-13T13:44:25;4.30;99.90
23629;DHT22;11991;57.150;-2.134;2023-03-13T13:46:54;4.20;99.90
23629;DHT22;11991;57.150;-2.134;2023-03-13T13:49:51;4.10;99.90
23629;DHT22;11991;57.150;-2.134;2023-03-13T13:52:35;3.90;99.90
23629;DHT22;11991;57.150;-2.134;2023-03-13T13:58:03;3.90;99.90
23629;DHT22;11991;57.150;-2.134;2023-03-13T14:00:42;3.90;99.90
23629;DHT22;11991;57.150;-2.134;2023-03-13T14:03:27;3.90;99.90
23629;DHT22;11991;57.150;-2.134;2023-03-13T14:06:01;4.00;99.90
23629;DHT22;11991;57.150;-2.134;2023-03-13T14:08:32;4.00;99.90
23629;DHT22;11991;57.150;-2.134;2023-03-13T14:11:17;4.10;99.90
23629;DHT22;11991;57.150;-2.134;2023-03-13T14:16:48;4.10;99.90
23629;DHT22;11991;57.150;-2.134;2023-03-13T14:22:01;4.20;99.90
23629;DHT22;11991;57.150;-2.134;2023-03-13T14:24:28;4.20;99.90
23629;DHT22;11991;57.150;-2.134;2023-03-13T14:26:56;4.30;99.90
23629;DHT22;11991;57.150;-2.134;2023-03-13T14:29:23;4.30;99.90
23629;DHT22;11991;57.150;-2.134;2023-03-13T14:31:56;4.40;99.90
23629;DHT22;11991;57.150;-2.134;2023-03-13T14:34:25;4.40;99.90
23629;DHT22;11991;57.150;-2.134;2023-03-13T14:36:55;4.50;99.90
23629;DHT22;11991;57.150;-2.134;2023-03-13T14:39:44;4.50;99.90
23629;DHT22;11991;57.150;-2.134;2023-03-13T14:42:13;4.50;99.90
23629;DHT22;11991;57.150;-2.134;2023-03-13T14:44:42;4.50;99.90
23629;DHT22;11991;57.150;-2.134;2023-03-13T14:47:24;4.40;99.90
23629;DHT22;11991;57.150;-2.134;2023-03-13T14:50:08;4.40;99.90
23629;DHT22;11991;57.150;-2.134;2023-03-13T14:52:37;4.30;99.90
23629;DHT22;11991;57.150;-2.134;2023-03-13T14:58:29;3.90;99.90
23629;DHT22;11991;57.150;-2.134;2023-03-13T15:00:57;3.90;99.90
23629;DHT22;11991;57.150;-2.134;2023-03-13T15:03:30;3.90;99.90
23629;DHT22;11991;57.150;-2.134;2023-03-13T15:08:40;3.80;99.90
23629;DHT22;11991;57.150;-2.134;2023-03-13T15:11:28;3.70;99.90
23629;DHT22;11991;57.150;-2.134;2023-03-13T15:13:56;3.50;99.90
23629;DHT22;11991;57.150;-2.134;2023-03-13T15:16:25;3.40;99.90
23629;DHT22;11991;57.150;-2.134;2023-03-13T15:18:53;3.30;99.90
23629;DHT22;11991;57.150;-2.134;2023-03-13T15:21:29;3.20;99.90
23629;DHT22;11991;57.150;-2.134;2023-03-13T15:24:14;3.10;99.90
23629;DHT22;11991;57.150;-2.134;2023-03-13T15:26:41;2.90;99.90
23629;DHT22;11991;57.150;-2.134;2023-03-13T15:29:09;2.80;99.90
23629;DHT22;11991;57.150;-2.134;2023-03-13T15:31:37;2.80;99.90
23629;DHT22;11991;57.150;-2.134;2023-03-13T15:34:10;2.80;99.90
23629;DHT22;11991;57.150;-2.134;2023-03-13T15:36:39;2.80;99.90
23629;DHT22;11991;57.150;-2.134;2023-03-13T15:39:17;2.80;99.90
23629;DHT22;11991;57.150;-2.134;2023-03-13T15:41:49;2.90;99.90
23629;DHT22;11991;57.150;-2.134;2023-03-13T15:44:16;3.00;99.90
23629;DHT22;11991;57.150;-2.134;2023-03-13T15:46:44;3.10;99.90
23629;DHT22;11991;57.150;-2.134;2023-03-13T15:49:12;3.10;99.90
23629;DHT22;11991;57.150;-2.134;2023-03-13T15:51:39;3.20;99.90
23629;DHT22;11991;57.150;-2.134;2023-03-13T15:54:06;3.30;99.90
23629;DHT22;11991;57.150;-2.134;2023-03-13T15:56:35;3.40;99.90
23629;DHT22;11991;57.150;-2.134;2023-03-13T15:59:14;3.40;99.90
23629;DHT22;11991;57.150;-2.134;2023-03-13T16:01:42;3.50;99.90
23629;DHT22;11991;57.150;-2.134;2023-03-13T16:04:12;3.50;99.90
23629;DHT22;11991;57.150;-2.134;2023-03-13T16:06:39;3.50;99.90
23629;DHT22;11991;57.150;-2.134;2023-03-13T16:09:07;3.60;99.90
23629;DHT22;11991;57.150;-2.134;2023-03-13T16:11:34;3.60;99.90
23629;DHT22;11991;57.150;-2.134;2023-03-13T16:14:04;3.50;99.90
23629;DHT22;11991;57.150;-2.134;2023-03-13T16:16:34;3.50;99.90
23629;DHT22;11991;57.150;-2.134;2023-03-13T16:19:03;3.30;99.90
23629;DHT22;11991;57.150;-2.134;2023-03-13T16:21:32;3.30;99.90
23629;DHT22;11991;57.150;-2.134;2023-03-13T16:24:01;3.20;99.90
23629;DHT22;11991;57.150;-2.134;2023-03-13T16:26:29;3.20;99.90
23629;DHT22;11991;57.150;-2.134;2023-03-13T16:28:57;3.10;99.90
23629;DHT22;11991;57.150;-2.134;2023-03-13T16:31:28;3.10;99.90
23629;DHT22;11991;57.150;-2.134;2023-03-13T16:33:57;3.20;99.90
23629;DHT22;11991;57.150;-2.134;2023-03-13T16:36:30;3.20;99.90
23629;DHT22;11991;57.150;-2.134;2023-03-13T16:38:59;3.20;99.90
23629;DHT22;11991;57.150;-2.134;2023-03-13T16:41:28;3.30;99.90
23629;DHT22;11991;57.150;-2.134;2023-03-13T16:44:42;3.40;99.90
23629;DHT22;11991;57.150;-2.134;2023-03-13T16:47:21;3.30;99.90
23629;DHT22;11991;57.150;-2.134;2023-03-13T16:49:49;3.30;99.90
23629;DHT22;11991;57.150;-2.134;2023-03-13T16:52:17;3.20;99.90
23629;DHT22;11991;57.150;-2.134;2023-03-13T16:54:45;3.20;99.90
23629;DHT22;11991;57.150;-2.134;2023-03-13T16:57:15;3.20;99.90
23629;DHT22;11991;57.150;-2.134;2023-03-13T16:59:42;3.20;99.90
23629;DHT22;11991;57.150;-2.134;2023-03-13T17:02:14;3.20;99.90
23629;DHT22;11991;57.150;-2.134;2023-03-13T17:04:43;3.00;99.90
23629;DHT22;11991;57.150;-2.134;2023-03-13T17:07:21;3.00;99.90
23629;DHT22;11991;57.150;-2.134;2023-03-13T17:09:49;2.90;99.90
23629;DHT22;11991;57.150;-2.134;2023-03-13T17:12:18;2.90;99.90
23629;DHT22;11991;57.150;-2.134;2023-03-13T17:14:45;2.90;99.90
23629;DHT22;11991;57.150;-2.134;2023-03-13T17:17:18;2.90;99.90
23629;DHT22;11991;57.150;-2.134;2023-03-13T17:19:47;3.00;99.90
23629;DHT22;11991;57.150;-2.134;2023-03-13T17:22:16;3.00;99.90
23629;DHT22;11991;57.150;-2.134;2023-03-13T17:24:43;2.90;99.90
23629;DHT22;11991;57.150;-2.134;2023-03-13T17:27:15;2.90;99.90
23629;DHT22;11991;57.150;-2.134;2023-03-13T17:29:43;2.80;99.90
23629;DHT22;11991;57.150;-2.134;2023-03-13T17:32:12;2.80;99.90
23629;DHT22;11991;57.150;-2.134;2023-03-13T17:34:40;2.70;99.90